createdAt,value
2023-10-17T00:02:11.829Z,12.93
2023-10-17T00:04:42.549Z,12.72
2023-10-17T00:07:09.544Z,12.64
2023-10-17T00:09:38.734Z,12.56
2023-10-17T00:12:15.138Z,12.49
2023-10-17T00:14:54.351Z,12.34
2023-10-17T00:17:21.445Z,12.48
2023-10-17T00:19:50.434Z,12.47
2023-10-17T00:22:20.051Z,12.43
2023-10-17T00:24:48.195Z,12.18
2023-10-17T00:27:15.654Z,12.59
2023-10-17T00:29:42.298Z,12.39
2023-10-17T00:32:13.840Z,12.44
2023-10-17T00:34:41.963Z,12.44
2023-10-17T00:37:12.445Z,12.48
2023-10-17T00:39:39.746Z,12.17
2023-10-17T00:42:08.108Z,12.40
2023-10-17T00:44:37.849Z,12.40
2023-10-17T00:47:06.179Z,12.19
2023-10-17T00:49:38.929Z,12.24
2023-10-17T00:52:05.344Z,12.20
2023-10-17T00:54:33.379Z,12.14
2023-10-17T00:57:07.053Z,12.14
2023-10-17T00:59:33.504Z,11.95
2023-10-17T01:02:08.198Z,11.95
2023-10-17T01:04:41.221Z,11.80
2023-10-17T01:07:08.972Z,11.55
2023-10-17T01:09:36.484Z,11.67
2023-10-17T01:12:09.673Z,11.71
2023-10-17T01:14:36.846Z,11.79
2023-10-17T01:17:08.000Z,11.67
2023-10-17T01:19:35.001Z,11.62
2023-10-17T01:22:01.756Z,11.84
2023-10-17T01:24:28.490Z,11.88
2023-10-17T01:26:56.631Z,11.98
2023-10-17T01:29:23.233Z,11.97
2023-10-17T01:31:51.469Z,11.87
2023-10-17T01:34:19.127Z,12.14
2023-10-17T01:36:48.502Z,12.11
2023-10-17T01:39:15.205Z,12.16
2023-10-17T01:41:47.600Z,12.11
2023-10-17T01:44:14.096Z,12.08
2023-10-17T01:46:40.501Z,11.98
2023-10-17T01:49:13.951Z,11.94
2023-10-17T01:51:49.430Z,12.11
2023-10-17T01:54:18.960Z,11.83
2023-10-17T01:56:48.487Z,12.13
2023-10-17T01:59:18.864Z,12.01
2023-10-17T02:01:45.547Z,11.87
2023-10-17T02:04:14.300Z,11.81
2023-10-17T02:06:41.734Z,11.67
2023-10-17T02:09:31.376Z,11.79
2023-10-17T02:11:58.243Z,11.68
2023-10-17T02:14:24.991Z,11.83
2023-10-17T02:16:51.462Z,11.80
2023-10-17T02:19:20.900Z,11.72
2023-10-17T02:21:51.757Z,11.93
2023-10-17T02:24:21.488Z,11.85
2023-10-17T02:26:56.596Z,11.86
2023-10-17T02:29:40.211Z,11.86
2023-10-17T02:32:12.490Z,11.99
2023-10-17T02:34:39.448Z,12.05
2023-10-17T02:37:11.478Z,12.12
2023-10-17T02:39:39.124Z,11.79
2023-10-17T02:42:09.615Z,11.77
2023-10-17T02:44:41.196Z,11.65
2023-10-17T02:47:12.026Z,11.86
2023-10-17T02:49:38.595Z,11.90
2023-10-17T02:52:06.668Z,11.99
2023-10-17T02:54:53.449Z,11.97
2023-10-17T02:57:19.828Z,11.99
2023-10-17T02:59:47.061Z,12.06
2023-10-17T03:02:13.420Z,12.21
2023-10-17T03:04:43.562Z,12.31
2023-10-17T03:07:12.473Z,12.16
2023-10-17T03:09:40.859Z,11.97
2023-10-17T03:12:07.445Z,12.02
2023-10-17T03:14:40.234Z,11.76
2023-10-17T03:17:07.970Z,11.85
2023-10-17T03:19:34.968Z,11.80
2023-10-17T03:22:17.551Z,12.06
2023-10-17T03:24:45.367Z,12.15
2023-10-17T03:27:13.145Z,12.29
2023-10-17T03:29:47.136Z,12.27
2023-10-17T03:32:14.093Z,12.20
2023-10-17T03:34:46.195Z,12.07
2023-10-17T03:37:25.428Z,12.34
2023-10-17T03:39:53.397Z,12.29
2023-10-17T03:42:39.404Z,11.96
2023-10-17T03:45:27.606Z,11.80
2023-10-17T03:47:54.899Z,11.91
2023-10-17T03:50:45.244Z,11.85
2023-10-17T03:53:25.941Z,11.75
2023-10-17T03:55:52.957Z,12.07
2023-10-17T03:58:23.960Z,11.97
2023-10-17T04:00:54.680Z,12.21
2023-10-17T04:03:31.554Z,11.85
2023-10-17T04:06:09.314Z,12.14
2023-10-17T04:08:49.360Z,11.85
2023-10-17T04:11:20.450Z,11.89
2023-10-17T04:13:50.610Z,12.08
2023-10-17T04:16:22.696Z,11.61
2023-10-17T04:18:56.429Z,12.03
2023-10-17T04:21:32.598Z,12.12
2023-10-17T04:24:00.836Z,12.08
2023-10-17T04:26:30.771Z,12.07
2023-10-17T04:29:01.879Z,12.26
2023-10-17T04:31:31.124Z,12.15
2023-10-17T04:34:07.580Z,12.25
2023-10-17T04:36:38.554Z,12.09
2023-10-17T04:39:24.891Z,12.15
2023-10-17T04:41:52.765Z,12.21
2023-10-17T04:44:37.349Z,12.16
2023-10-17T04:47:05.853Z,12.40
2023-10-17T04:49:37.963Z,12.17
2023-10-17T04:52:07.923Z,12.02
2023-10-17T04:54:38.250Z,11.85
2023-10-17T04:57:06.359Z,11.35
2023-10-17T04:59:49.562Z,11.78
2023-10-17T05:02:21.341Z,11.99
2023-10-17T05:04:55.047Z,12.15
2023-10-17T05:07:29.361Z,12.22
2023-10-17T05:10:14.565Z,12.18
2023-10-17T05:12:59.364Z,12.04
2023-10-17T05:15:44.219Z,11.89
2023-10-17T05:18:29.626Z,12.16
2023-10-17T05:21:14.848Z,11.76
2023-10-17T05:24:00.281Z,11.83
2023-10-17T05:26:44.972Z,12.00
2023-10-17T05:29:29.720Z,12.06
2023-10-17T05:32:14.446Z,12.10
2023-10-17T05:35:01.048Z,12.11
2023-10-17T05:37:46.745Z,12.10
2023-10-17T05:40:31.412Z,12.16
2023-10-17T05:43:16.153Z,12.21
2023-10-17T05:46:00.929Z,12.13
2023-10-17T05:48:45.863Z,11.81
2023-10-17T05:51:30.644Z,11.98
2023-10-17T05:57:03.435Z,11.93
2023-10-17T05:59:48.173Z,11.91
2023-10-17T06:02:33.134Z,12.11
2023-10-17T06:05:17.852Z,12.17
2023-10-17T06:08:02.658Z,12.20
2023-10-17T06:10:49.486Z,12.11
2023-10-17T06:13:34.260Z,11.99
2023-10-17T06:16:19.082Z,12.28
2023-10-17T06:18:50.645Z,12.17
2023-10-17T06:21:20.209Z,11.90
2023-10-17T06:23:50.069Z,12.06
2023-10-17T06:26:41.770Z,12.20
2023-10-17T06:29:17.895Z,12.00
2023-10-17T06:32:16.231Z,12.31
2023-10-17T06:34:46.094Z,12.39
2023-10-17T06:37:29.184Z,11.97
2023-10-17T06:39:59.381Z,12.05
2023-10-17T06:42:30.979Z,12.31
2023-10-17T06:45:12.137Z,12.20
2023-10-17T06:47:48.600Z,12.12
2023-10-17T06:50:15.368Z,12.15
2023-10-17T06:53:02.302Z,12.34
2023-10-17T06:55:44.438Z,12.32
2023-10-17T06:58:12.112Z,12.31
2023-10-17T07:00:55.554Z,12.36
2023-10-17T07:03:28.995Z,12.17
2023-10-17T07:06:12.407Z,11.84
2023-10-17T07:08:40.338Z,12.43
2023-10-17T07:11:25.574Z,12.29
2023-10-17T07:14:07.224Z,12.05
2023-10-17T07:16:43.129Z,11.69
2023-10-17T07:19:24.946Z,12.49
2023-10-17T07:22:01.634Z,12.10
2023-10-17T07:24:32.870Z,12.19
2023-10-17T07:27:00.083Z,12.34
2023-10-17T07:29:26.704Z,11.82
2023-10-17T07:31:55.050Z,12.45
2023-10-17T07:34:25.273Z,12.39
2023-10-17T07:37:10.902Z,12.15
2023-10-17T07:39:40.005Z,11.89
2023-10-17T07:42:15.367Z,12.02
2023-10-17T07:44:44.688Z,12.38
2023-10-17T07:47:20.885Z,11.93
2023-10-17T07:49:48.930Z,12.51
2023-10-17T07:52:18.671Z,12.31
2023-10-17T07:55:06.236Z,11.93
2023-10-17T07:57:37.395Z,12.53
2023-10-17T08:00:24.874Z,12.60
2023-10-17T08:02:53.147Z,12.12
2023-10-17T08:05:27.850Z,12.77
2023-10-17T08:08:05.445Z,12.60
2023-10-17T08:10:36.524Z,12.72
2023-10-17T08:13:03.445Z,12.69
2023-10-17T08:15:49.141Z,12.44
2023-10-17T08:18:16.200Z,12.59
2023-10-17T08:20:49.078Z,12.64
2023-10-17T08:23:20.705Z,12.50
2023-10-17T08:25:57.871Z,12.64
2023-10-17T08:28:42.999Z,12.54
2023-10-17T08:31:19.549Z,12.39
2023-10-17T08:33:51.785Z,12.69
2023-10-17T08:36:18.284Z,12.74
2023-10-17T08:38:44.718Z,12.83
2023-10-17T08:41:11.107Z,12.56
2023-10-17T08:43:37.591Z,12.57
2023-10-17T08:46:12.028Z,12.81
2023-10-17T08:48:38.695Z,12.71
2023-10-17T08:51:18.345Z,12.97
2023-10-17T08:53:55.868Z,13.04
2023-10-17T08:56:22.672Z,12.86
2023-10-17T08:58:49.189Z,12.93
2023-10-17T09:01:19.788Z,12.63
2023-10-17T09:03:48.290Z,12.15
2023-10-17T09:06:21.032Z,12.70
2023-10-17T09:08:56.696Z,12.41
2023-10-17T09:11:35.574Z,13.17
2023-10-17T09:14:16.365Z,13.05
2023-10-17T09:17:15.791Z,13.16
2023-10-17T09:19:52.013Z,13.20
2023-10-17T09:22:21.570Z,13.57
2023-10-17T09:24:51.321Z,13.46
2023-10-17T09:27:19.750Z,13.34
2023-10-17T09:29:48.060Z,13.68
2023-10-17T09:32:37.570Z,13.84
2023-10-17T09:35:11.702Z,13.55
2023-10-17T09:37:40.177Z,13.97
2023-10-17T09:40:13.168Z,13.86
2023-10-17T09:42:47.380Z,14.13
2023-10-17T09:45:33.425Z,14.32
2023-10-17T09:48:07.582Z,14.30
2023-10-17T09:50:36.408Z,14.09
2023-10-17T09:53:25.028Z,13.43
2023-10-17T09:55:51.981Z,14.00
2023-10-17T09:58:30.061Z,14.13
2023-10-17T10:01:01.787Z,13.65
2023-10-17T10:03:29.787Z,14.34
2023-10-17T10:06:27.202Z,13.79
2023-10-17T10:08:58.257Z,14.66
2023-10-17T10:11:51.210Z,15.00
2023-10-17T10:14:42.040Z,15.88
2023-10-17T10:17:10.182Z,17.22
2023-10-17T10:19:43.092Z,18.22
2023-10-17T10:22:14.988Z,19.06
2023-10-17T10:24:43.305Z,19.45
2023-10-17T10:27:10.264Z,19.28
2023-10-17T10:29:37.200Z,19.05
2023-10-17T10:32:07.191Z,19.01
2023-10-17T10:34:36.754Z,18.48
2023-10-17T10:37:10.998Z,19.40
2023-10-17T10:39:37.583Z,20.19
2023-10-17T10:42:08.253Z,20.43
2023-10-17T10:44:42.762Z,20.07
2023-10-17T10:47:11.203Z,19.83
2023-10-17T10:49:37.771Z,19.16
2023-10-17T10:52:04.441Z,19.06
2023-10-17T10:54:51.644Z,18.77
2023-10-17T10:57:30.131Z,18.02
2023-10-17T10:59:56.682Z,17.92
2023-10-17T11:02:24.060Z,17.20
2023-10-17T11:04:54.023Z,18.20
2023-10-17T11:07:24.900Z,18.08
2023-10-17T11:10:08.945Z,18.18
2023-10-17T11:12:35.943Z,17.78
2023-10-17T11:15:22.834Z,17.75
2023-10-17T11:17:49.313Z,17.95
2023-10-17T11:20:16.306Z,18.12
2023-10-17T11:22:43.763Z,18.19
2023-10-17T11:25:15.112Z,18.27
2023-10-17T11:28:03.286Z,18.18
2023-10-17T11:30:37.319Z,17.86
2023-10-17T11:33:05.370Z,17.68
2023-10-17T11:35:33.656Z,17.63
2023-10-17T11:38:08.288Z,17.88
2023-10-17T11:40:40.139Z,17.89
2023-10-17T11:43:20.528Z,18.15
2023-10-17T11:45:47.967Z,18.15
2023-10-17T11:48:31.148Z,18.41
2023-10-17T11:51:08.817Z,18.15
2023-10-17T11:53:35.793Z,17.87
2023-10-17T11:56:03.083Z,18.08
2023-10-17T11:58:30.397Z,18.32
2023-10-17T12:00:57.619Z,18.29
2023-10-17T12:03:27.244Z,17.83
2023-10-17T12:05:55.022Z,17.81
2023-10-17T12:08:26.291Z,18.15
2023-10-17T12:10:54.455Z,17.83
2023-10-17T12:13:21.059Z,17.67
2023-10-17T12:15:47.987Z,17.85
2023-10-17T12:18:14.771Z,18.28
2023-10-17T12:20:44.420Z,18.54
2023-10-17T12:23:17.404Z,18.44
2023-10-17T12:25:44.249Z,19.08
2023-10-17T12:28:10.660Z,19.96
2023-10-17T12:30:37.473Z,20.10
2023-10-17T12:33:06.024Z,20.16
2023-10-17T12:35:33.030Z,19.72
2023-10-17T12:38:00.717Z,19.38
2023-10-17T12:40:27.717Z,19.71
2023-10-17T12:42:57.578Z,19.37
2023-10-17T12:45:25.656Z,19.07
2023-10-17T12:47:52.653Z,18.90
2023-10-17T12:50:22.066Z,18.92
2023-10-17T12:52:48.699Z,19.10
2023-10-17T12:55:15.156Z,19.12
2023-10-17T12:57:41.783Z,19.04
2023-10-17T13:00:13.178Z,19.63
2023-10-17T13:02:40.742Z,19.76
2023-10-17T13:05:10.328Z,19.75
2023-10-17T13:07:40.428Z,20.36
2023-10-17T13:10:08.247Z,20.04
2023-10-17T13:12:35.081Z,20.05
2023-10-17T13:15:01.575Z,19.84
2023-10-17T13:17:29.781Z,19.85
2023-10-17T13:19:58.526Z,20.00
2023-10-17T13:22:25.007Z,19.39
2023-10-17T13:24:51.513Z,20.02
2023-10-17T13:27:20.729Z,19.32
2023-10-17T13:29:48.632Z,18.83
2023-10-17T13:32:15.121Z,18.62
2023-10-17T13:34:41.536Z,18.59
2023-10-17T13:37:09.414Z,18.54
2023-10-17T13:39:38.104Z,18.33
2023-10-17T13:42:05.355Z,18.29
2023-10-17T13:44:32.305Z,18.10
2023-10-17T13:46:58.834Z,17.89
2023-10-17T13:49:27.134Z,17.99
2023-10-17T13:51:55.989Z,17.80
2023-10-17T13:54:22.702Z,18.14
2023-10-17T13:56:52.112Z,18.30
2023-10-17T13:59:18.541Z,18.44
2023-10-17T14:01:47.767Z,18.20
2023-10-17T14:04:14.537Z,18.50
2023-10-17T14:06:43.364Z,18.45
2023-10-17T14:09:17.534Z,18.17
2023-10-17T14:11:48.079Z,18.70
2023-10-17T14:14:17.912Z,18.82
2023-10-17T14:16:45.189Z,18.56
2023-10-17T14:19:31.801Z,18.88
2023-10-17T14:22:22.114Z,19.04
2023-10-17T14:24:54.573Z,18.76
2023-10-17T14:27:23.992Z,18.83
2023-10-17T14:29:51.925Z,18.78
2023-10-17T14:32:21.397Z,19.02
2023-10-17T14:34:49.299Z,18.55
2023-10-17T14:37:16.298Z,18.86
2023-10-17T14:39:45.659Z,18.55
2023-10-17T14:42:14.855Z,18.59
2023-10-17T14:44:43.999Z,18.91
2023-10-17T14:47:10.395Z,18.59
2023-10-17T14:49:37.296Z,18.41
2023-10-17T14:52:03.940Z,18.71
2023-10-17T14:54:32.679Z,18.32
2023-10-17T14:57:03.080Z,18.64
2023-10-17T14:59:29.696Z,18.72
2023-10-17T15:01:56.547Z,18.29
2023-10-17T15:04:23.126Z,18.67
2023-10-17T15:06:49.681Z,18.58
2023-10-17T15:09:19.523Z,18.12
2023-10-17T15:11:47.126Z,18.42
2023-10-17T15:14:13.535Z,18.45
2023-10-17T15:16:40.147Z,18.03
2023-10-17T15:19:10.325Z,18.40
2023-10-17T15:21:37.007Z,18.22
2023-10-17T15:24:03.628Z,18.33
2023-10-17T15:26:30.054Z,18.45
2023-10-17T15:28:56.556Z,18.19
2023-10-17T15:31:23.181Z,18.51
2023-10-17T15:33:50.380Z,18.74
2023-10-17T15:36:27.260Z,18.82
2023-10-17T15:38:54.951Z,18.69
2023-10-17T15:41:22.429Z,18.33
2023-10-17T15:43:48.798Z,18.55
2023-10-17T15:46:16.854Z,18.53
2023-10-17T15:48:43.707Z,18.59
2023-10-17T15:51:10.358Z,18.19
2023-10-17T15:53:36.765Z,18.55
2023-10-17T15:56:03.679Z,18.45
2023-10-17T15:58:32.362Z,18.40
2023-10-17T16:00:59.137Z,18.18
2023-10-17T16:03:26.070Z,18.29
2023-10-17T16:05:54.134Z,18.01
2023-10-17T16:08:21.966Z,18.09
2023-10-17T16:10:58.123Z,18.00
2023-10-17T16:13:25.161Z,17.46
2023-10-17T16:15:59.912Z,17.71
2023-10-17T16:18:27.663Z,17.62
2023-10-17T16:20:54.182Z,17.60
2023-10-17T16:23:21.504Z,17.08
2023-10-17T16:25:51.946Z,17.48
2023-10-17T16:28:18.470Z,17.40
2023-10-17T16:30:45.523Z,17.32
2023-10-17T16:33:14.137Z,17.14
2023-10-17T16:35:43.307Z,17.06
2023-10-17T16:38:12.992Z,16.91
2023-10-17T16:40:44.529Z,16.50
2023-10-17T16:43:12.025Z,17.09
2023-10-17T16:45:38.555Z,16.83
2023-10-17T16:48:08.277Z,16.78
2023-10-17T16:50:34.712Z,16.91
2023-10-17T16:53:01.160Z,16.60
2023-10-17T16:55:27.885Z,16.71
2023-10-17T16:57:54.692Z,16.49
2023-10-17T17:00:21.695Z,16.48
2023-10-17T17:02:48.373Z,16.18
2023-10-17T17:05:15.871Z,15.92
2023-10-17T17:07:43.035Z,15.84
2023-10-17T17:10:14.907Z,15.20
2023-10-17T17:12:46.373Z,15.67
2023-10-17T17:15:14.133Z,15.16
2023-10-17T17:17:41.543Z,15.34
2023-10-17T17:20:15.411Z,15.27
2023-10-17T17:22:42.451Z,15.11
2023-10-17T17:25:14.759Z,15.43
2023-10-17T17:27:42.372Z,15.49
2023-10-17T17:30:09.724Z,15.84
2023-10-17T17:32:36.662Z,15.82
2023-10-17T17:35:04.712Z,15.97
2023-10-17T17:37:31.257Z,15.77
2023-10-17T17:39:57.856Z,15.97
2023-10-17T17:42:24.399Z,15.41
2023-10-17T17:44:50.934Z,15.65
2023-10-17T17:47:18.757Z,16.16
2023-10-17T17:49:46.812Z,15.98
2023-10-17T17:52:13.264Z,15.96
2023-10-17T17:54:39.828Z,15.81
2023-10-17T17:57:07.096Z,15.55
2023-10-17T17:59:33.975Z,15.75
2023-10-17T18:02:00.516Z,15.70
2023-10-17T18:04:31.508Z,16.05
2023-10-17T18:07:02.011Z,15.85
2023-10-17T18:09:29.396Z,15.19
2023-10-17T18:11:56.518Z,15.47
2023-10-17T18:14:24.079Z,15.78
2023-10-17T18:16:50.625Z,15.35
2023-10-17T18:19:17.145Z,15.07
2023-10-17T18:21:43.692Z,15.87
2023-10-17T18:24:10.670Z,14.95
2023-10-17T18:26:39.220Z,15.77
2023-10-17T18:29:11.398Z,15.37
2023-10-17T18:31:40.316Z,15.91
2023-10-17T18:34:07.313Z,15.84
2023-10-17T18:36:34.553Z,15.17
2023-10-17T18:39:04.134Z,15.40
2023-10-17T18:41:31.661Z,14.35
2023-10-17T18:44:00.238Z,14.54
2023-10-17T18:46:26.880Z,15.53
2023-10-17T18:48:53.467Z,15.08
2023-10-17T18:51:20.455Z,15.54
2023-10-17T18:53:47.320Z,15.45
2023-10-17T18:56:14.807Z,15.50
2023-10-17T18:58:42.176Z,14.95
2023-10-17T19:01:14.756Z,15.04
2023-10-17T19:03:43.168Z,15.26
2023-10-17T19:06:11.205Z,15.30
2023-10-17T19:08:39.152Z,15.33
2023-10-17T19:11:06.157Z,15.49
2023-10-17T19:13:34.466Z,15.37
2023-10-17T19:16:01.385Z,14.67
2023-10-17T19:18:28.932Z,14.90
2023-10-17T19:20:55.845Z,15.09
2023-10-17T19:23:23.015Z,14.33
2023-10-17T19:25:49.831Z,14.48
2023-10-17T19:28:19.552Z,14.64
2023-10-17T19:30:46.808Z,14.89
2023-10-17T19:33:15.443Z,14.59
2023-10-17T19:35:42.039Z,14.54
2023-10-17T19:38:10.733Z,14.88
2023-10-17T19:40:37.777Z,14.93
2023-10-17T19:43:04.617Z,15.13
2023-10-17T19:45:31.743Z,14.79
2023-10-17T19:48:01.605Z,14.95
2023-10-17T19:50:29.015Z,14.78
2023-10-17T19:52:57.251Z,14.53
2023-10-17T19:55:24.268Z,14.68
2023-10-17T19:57:51.345Z,14.24
2023-10-17T20:00:20.456Z,14.69
2023-10-17T20:02:47.834Z,13.78
2023-10-17T20:05:14.650Z,14.66
2023-10-17T20:07:41.600Z,14.77
2023-10-17T20:10:10.250Z,14.67
2023-10-17T20:12:38.179Z,14.75
2023-10-17T20:15:12.153Z,14.72
2023-10-17T20:17:41.516Z,14.48
2023-10-17T20:20:11.402Z,14.06
2023-10-17T20:22:38.310Z,14.30
2023-10-17T20:25:05.573Z,14.44
2023-10-17T20:27:32.335Z,14.42
2023-10-17T20:29:58.941Z,14.24
2023-10-17T20:32:25.806Z,14.02
2023-10-17T20:34:53.134Z,13.84
2023-10-17T20:37:20.023Z,14.45
2023-10-17T20:39:48.171Z,14.52
2023-10-17T20:42:14.977Z,14.42
2023-10-17T20:44:41.551Z,14.44
2023-10-17T20:47:08.085Z,13.85
2023-10-17T20:49:35.422Z,14.35
2023-10-17T20:52:11.123Z,14.10
2023-10-17T20:54:42.613Z,13.65
2023-10-17T20:57:10.276Z,14.26
2023-10-17T20:59:37.196Z,13.67
2023-10-17T21:02:04.833Z,14.10
2023-10-17T21:04:31.684Z,14.08
2023-10-17T21:06:58.253Z,14.18
2023-10-17T21:09:24.745Z,14.21
2023-10-17T21:11:51.159Z,13.94
2023-10-17T21:14:17.592Z,13.50
2023-10-17T21:16:44.332Z,13.95
2023-10-17T21:19:11.317Z,13.97
2023-10-17T21:21:38.548Z,13.74
2023-10-17T21:24:08.488Z,13.94
2023-10-17T21:26:34.983Z,13.87
2023-10-17T21:29:01.792Z,14.12
2023-10-17T21:31:28.654Z,13.90
2023-10-17T21:33:55.301Z,13.96
2023-10-17T21:36:22.430Z,13.88
2023-10-17T21:38:49.991Z,13.85
2023-10-17T21:41:16.959Z,13.71
2023-10-17T21:43:43.695Z,13.49
2023-10-17T21:46:10.823Z,13.68
2023-10-17T21:48:45.421Z,13.10
2023-10-17T21:51:19.373Z,13.62
2023-10-17T21:53:45.861Z,13.79
2023-10-17T21:56:13.671Z,13.47
2023-10-17T21:58:40.160Z,13.45
2023-10-17T22:01:16.562Z,13.35
2023-10-17T22:03:44.125Z,13.51
2023-10-17T22:06:11.140Z,13.06
2023-10-17T22:08:39.640Z,13.60
2023-10-17T22:11:16.528Z,13.18
2023-10-17T22:13:46.174Z,13.49
2023-10-17T22:16:15.073Z,13.14
2023-10-17T22:18:43.136Z,13.24
2023-10-17T22:21:11.209Z,13.26
2023-10-17T22:23:38.075Z,12.98
2023-10-17T22:26:14.177Z,13.05
2023-10-17T22:28:41.042Z,12.89
2023-10-17T22:31:11.465Z,13.23
2023-10-17T22:33:39.154Z,13.29
2023-10-17T22:36:06.729Z,13.11
2023-10-17T22:38:33.302Z,13.27
2023-10-17T22:40:59.752Z,13.00
2023-10-17T22:43:26.200Z,12.56
2023-10-17T22:45:52.655Z,13.33
2023-10-17T22:48:19.120Z,12.48
2023-10-17T22:50:45.841Z,13.14
2023-10-17T22:53:13.236Z,12.78
2023-10-17T22:55:40.577Z,12.87
2023-10-17T22:58:08.160Z,13.28
2023-10-17T23:00:35.456Z,12.84
2023-10-17T23:03:03.921Z,12.77
2023-10-17T23:05:30.392Z,13.00
2023-10-17T23:07:56.784Z,12.71
2023-10-17T23:10:23.491Z,12.90
2023-10-17T23:12:49.939Z,12.89
2023-10-17T23:15:16.458Z,12.61
2023-10-17T23:17:46.624Z,12.38
2023-10-17T23:20:16.018Z,12.79
2023-10-17T23:22:46.933Z,12.98
2023-10-17T23:25:14.205Z,12.76
2023-10-17T23:27:42.044Z,12.98
2023-10-17T23:30:16.014Z,13.02
2023-10-17T23:32:44.901Z,12.66
2023-10-17T23:35:12.000Z,12.85
2023-10-17T23:37:39.898Z,12.63
2023-10-17T23:40:11.332Z,12.78
2023-10-17T23:42:38.316Z,12.71
2023-10-17T23:45:05.685Z,12.62
2023-10-17T23:47:36.316Z,12.42
2023-10-17T23:50:11.724Z,12.62
2023-10-17T23:52:40.841Z,12.63
2023-10-17T23:55:09.205Z,12.64
2023-10-17T23:57:36.938Z,12.46
